sensor_id;sensor_type;location;lat;lon;timestamp;temperature;humidity
17726;DHT22;8983;53.156;17.960;2023-04-25T00:01:56;14.40;99.90
17726;DHT22;8983;53.156;17.960;2023-04-25T00:04:26;14.40;99.90
17726;DHT22;8983;53.156;17.960;2023-04-25T00:06:56;14.30;99.90
17726;DHT22;8983;53.156;17.960;2023-04-25T00:09:25;14.30;99.90
17726;DHT22;8983;53.156;17.960;2023-04-25T00:11:54;14.30;99.90
17726;DHT22;8983;53.156;17.960;2023-04-25T00:14:22;14.30;99.90
17726;DHT22;8983;53.156;17.960;2023-04-25T00:16:51;14.30;99.90
17726;DHT22;8983;53.156;17.960;2023-04-25T00:19:20;14.20;99.90
17726;DHT22;8983;53.156;17.960;2023-04-25T00:21:50;14.20;99.90
17726;DHT22;8983;53.156;17.960;2023-04-25T00:24:17;14.20;99.90
17726;DHT22;8983;53.156;17.960;2023-04-25T00:26:45;14.30;99.90
17726;DHT22;8983;53.156;17.960;2023-04-25T00:29:14;14.20;99.90
17726;DHT22;8983;53.156;17.960;2023-04-25T00:31:42;14.10;99.90
17726;DHT22;8983;53.156;17.960;2023-04-25T00:34:11;13.90;99.90
17726;DHT22;8983;53.156;17.960;2023-04-25T00:36:39;14.10;99.90
17726;DHT22;8983;53.156;17.960;2023-04-25T00:39:08;14.00;99.90
17726;DHT22;8983;53.156;17.960;2023-04-25T00:41:37;13.90;99.90
17726;DHT22;8983;53.156;17.960;2023-04-25T00:44:05;13.90;99.90
17726;DHT22;8983;53.156;17.960;2023-04-25T00:46:35;14.00;99.90
17726;DHT22;8983;53.156;17.960;2023-04-25T00:49:04;13.90;99.90
17726;DHT22;8983;53.156;17.960;2023-04-25T00:51:33;13.80;99.90
17726;DHT22;8983;53.156;17.960;2023-04-25T00:54:01;13.80;99.90
17726;DHT22;8983;53.156;17.960;2023-04-25T00:56:31;13.70;99.90
17726;DHT22;8983;53.156;17.960;2023-04-25T00:58:59;13.70;99.90
17726;DHT22;8983;53.156;17.960;2023-04-25T01:01:27;13.60;99.90
17726;DHT22;8983;53.156;17.960;2023-04-25T01:03:56;13.60;99.90
17726;DHT22;8983;53.156;17.960;2023-04-25T01:06:26;13.60;99.90
17726;DHT22;8983;53.156;17.960;2023-04-25T01:08:54;13.50;99.90
17726;DHT22;8983;53.156;17.960;2023-04-25T01:11:22;13.50;99.90
17726;DHT22;8983;53.156;17.960;2023-04-25T01:13:51;13.50;99.90
17726;DHT22;8983;53.156;17.960;2023-04-25T01:16:20;13.60;99.90
17726;DHT22;8983;53.156;17.960;2023-04-25T01:18:50;13.50;99.90
17726;DHT22;8983;53.156;17.960;2023-04-25T01:21:20;13.50;99.90
17726;DHT22;8983;53.156;17.960;2023-04-25T01:23:48;13.40;99.90
17726;DHT22;8983;53.156;17.960;2023-04-25T01:26:17;13.40;99.90
17726;DHT22;8983;53.156;17.960;2023-04-25T01:28:45;13.40;99.90
17726;DHT22;8983;53.156;17.960;2023-04-25T01:31:14;13.30;99.90
17726;DHT22;8983;53.156;17.960;2023-04-25T01:33:43;13.30;99.90
17726;DHT22;8983;53.156;17.960;2023-04-25T01:36:12;13.30;99.90
17726;DHT22;8983;53.156;17.960;2023-04-25T01:38:42;13.30;99.90
17726;DHT22;8983;53.156;17.960;2023-04-25T01:41:13;13.20;99.90
17726;DHT22;8983;53.156;17.960;2023-04-25T01:43:41;13.10;99.90
17726;DHT22;8983;53.156;17.960;2023-04-25T01:46:10;13.10;99.90
17726;DHT22;8983;53.156;17.960;2023-04-25T01:48:39;13.10;99.90
17726;DHT22;8983;53.156;17.960;2023-04-25T01:51:07;13.00;99.90
17726;DHT22;8983;53.156;17.960;2023-04-25T01:53:35;13.00;99.90
17726;DHT22;8983;53.156;17.960;2023-04-25T01:56:06;13.00;99.90
17726;DHT22;8983;53.156;17.960;2023-04-25T01:58:34;13.00;99.90
17726;DHT22;8983;53.156;17.960;2023-04-25T02:01:02;13.00;99.90
17726;DHT22;8983;53.156;17.960;2023-04-25T02:03:31;13.00;99.90
17726;DHT22;8983;53.156;17.960;2023-04-25T02:06:00;13.00;99.90
17726;DHT22;8983;53.156;17.960;2023-04-25T02:08:28;13.00;99.90
17726;DHT22;8983;53.156;17.960;2023-04-25T02:10:57;13.00;99.90
17726;DHT22;8983;53.156;17.960;2023-04-25T02:13:26;13.10;99.90
17726;DHT22;8983;53.156;17.960;2023-04-25T02:15:54;13.00;99.90
17726;DHT22;8983;53.156;17.960;2023-04-25T02:18:22;13.00;99.90
17726;DHT22;8983;53.156;17.960;2023-04-25T02:20:50;13.00;99.90
17726;DHT22;8983;53.156;17.960;2023-04-25T02:23:18;12.90;99.90
17726;DHT22;8983;53.156;17.960;2023-04-25T02:25:47;12.90;99.90
17726;DHT22;8983;53.156;17.960;2023-04-25T02:28:16;12.90;99.90
17726;DHT22;8983;53.156;17.960;2023-04-25T02:30:45;12.90;99.90
17726;DHT22;8983;53.156;17.960;2023-04-25T02:33:13;12.80;99.90
17726;DHT22;8983;53.156;17.960;2023-04-25T02:35:43;12.80;99.90
17726;DHT22;8983;53.156;17.960;2023-04-25T02:38:11;12.70;99.90
17726;DHT22;8983;53.156;17.960;2023-04-25T02:40:39;12.70;99.90
17726;DHT22;8983;53.156;17.960;2023-04-25T02:43:08;12.70;99.90
17726;DHT22;8983;53.156;17.960;2023-04-25T02:45:36;12.50;99.90
17726;DHT22;8983;53.156;17.960;2023-04-25T02:48:06;12.50;99.90
17726;DHT22;8983;53.156;17.960;2023-04-25T02:50:34;12.50;99.90
17726;DHT22;8983;53.156;17.960;2023-04-25T02:53:02;12.50;99.90
17726;DHT22;8983;53.156;17.960;2023-04-25T02:55:30;12.50;99.90
17726;DHT22;8983;53.156;17.960;2023-04-25T02:57:58;12.40;99.90
17726;DHT22;8983;53.156;17.960;2023-04-25T03:00:27;12.40;99.90
17726;DHT22;8983;53.156;17.960;2023-04-25T03:02:55;12.40;99.90
17726;DHT22;8983;53.156;17.960;2023-04-25T03:05:24;12.30;99.90
17726;DHT22;8983;53.156;17.960;2023-04-25T03:07:53;12.30;99.90
17726;DHT22;8983;53.156;17.960;2023-04-25T03:10:21;12.20;99.90
17726;DHT22;8983;53.156;17.960;2023-04-25T03:12:49;12.10;99.90
17726;DHT22;8983;53.156;17.960;2023-04-25T03:15:17;12.10;99.90
17726;DHT22;8983;53.156;17.960;2023-04-25T03:17:45;12.10;99.90
17726;DHT22;8983;53.156;17.960;2023-04-25T03:20:13;12.10;99.90
17726;DHT22;8983;53.156;17.960;2023-04-25T03:22:42;12.00;99.90
17726;DHT22;8983;53.156;17.960;2023-04-25T03:25:11;12.00;99.90
17726;DHT22;8983;53.156;17.960;2023-04-25T03:27:39;11.90;99.90
17726;DHT22;8983;53.156;17.960;2023-04-25T03:30:07;11.90;99.90
17726;DHT22;8983;53.156;17.960;2023-04-25T03:32:35;11.90;99.90
17726;DHT22;8983;53.156;17.960;2023-04-25T03:35:04;11.80;99.90
17726;DHT22;8983;53.156;17.960;2023-04-25T03:37:33;11.80;99.90
17726;DHT22;8983;53.156;17.960;2023-04-25T03:40:02;11.80;99.90
17726;DHT22;8983;53.156;17.960;2023-04-25T03:42:31;11.70;99.90
17726;DHT22;8983;53.156;17.960;2023-04-25T03:44:59;11.70;99.90
17726;DHT22;8983;53.156;17.960;2023-04-25T03:47:27;11.70;99.90
17726;DHT22;8983;53.156;17.960;2023-04-25T03:49:55;11.70;99.90
17726;DHT22;8983;53.156;17.960;2023-04-25T03:52:23;11.60;99.90
17726;DHT22;8983;53.156;17.960;2023-04-25T03:54:51;11.80;99.90
17726;DHT22;8983;53.156;17.960;2023-04-25T03:57:21;11.60;99.90
17726;DHT22;8983;53.156;17.960;2023-04-25T03:59:49;11.60;99.90
17726;DHT22;8983;53.156;17.960;2023-04-25T04:02:17;11.60;99.90
17726;DHT22;8983;53.156;17.960;2023-04-25T04:04:45;11.60;99.90
17726;DHT22;8983;53.156;17.960;2023-04-25T04:07:14;11.60;99.90
17726;DHT22;8983;53.156;17.960;2023-04-25T04:09:43;11.60;99.90
17726;DHT22;8983;53.156;17.960;2023-04-25T04:12:11;11.60;99.90
17726;DHT22;8983;53.156;17.960;2023-04-25T04:14:40;11.50;99.90
17726;DHT22;8983;53.156;17.960;2023-04-25T04:17:08;11.60;99.90
17726;DHT22;8983;53.156;17.960;2023-04-25T04:19:36;11.50;99.90
17726;DHT22;8983;53.156;17.960;2023-04-25T04:22:04;11.50;99.90
17726;DHT22;8983;53.156;17.960;2023-04-25T04:24:33;11.50;99.90
17726;DHT22;8983;53.156;17.960;2023-04-25T04:27:01;11.40;99.90
17726;DHT22;8983;53.156;17.960;2023-04-25T04:29:30;11.40;99.90
17726;DHT22;8983;53.156;17.960;2023-04-25T04:31:59;11.40;99.90
17726;DHT22;8983;53.156;17.960;2023-04-25T04:34:28;11.40;99.90
17726;DHT22;8983;53.156;17.960;2023-04-25T04:36:57;11.40;99.90
17726;DHT22;8983;53.156;17.960;2023-04-25T04:39:25;11.40;99.90
17726;DHT22;8983;53.156;17.960;2023-04-25T04:41:54;11.40;99.90
17726;DHT22;8983;53.156;17.960;2023-04-25T04:44:22;11.40;99.90
17726;DHT22;8983;53.156;17.960;2023-04-25T04:46:50;11.40;99.90
17726;DHT22;8983;53.156;17.960;2023-04-25T04:49:20;11.50;99.90
17726;DHT22;8983;53.156;17.960;2023-04-25T04:51:48;11.50;99.90
17726;DHT22;8983;53.156;17.960;2023-04-25T04:54:16;11.50;99.90
17726;DHT22;8983;53.156;17.960;2023-04-25T04:56:44;11.50;99.90
17726;DHT22;8983;53.156;17.960;2023-04-25T04:59:12;11.40;99.90
17726;DHT22;8983;53.156;17.960;2023-04-25T05:01:40;11.40;99.90
17726;DHT22;8983;53.156;17.960;2023-04-25T05:04:08;11.40;99.90
17726;DHT22;8983;53.156;17.960;2023-04-25T05:06:38;11.40;99.90
17726;DHT22;8983;53.156;17.960;2023-04-25T05:09:07;11.40;99.90
17726;DHT22;8983;53.156;17.960;2023-04-25T05:11:35;11.30;99.90
17726;DHT22;8983;53.156;17.960;2023-04-25T05:14:03;11.30;99.90
17726;DHT22;8983;53.156;17.960;2023-04-25T05:16:31;11.30;99.90
17726;DHT22;8983;53.156;17.960;2023-04-25T05:18:59;11.40;99.90
17726;DHT22;8983;53.156;17.960;2023-04-25T05:21:27;11.40;99.90
17726;DHT22;8983;53.156;17.960;2023-04-25T05:23:56;11.40;99.90
17726;DHT22;8983;53.156;17.960;2023-04-25T05:26:24;11.40;99.90
17726;DHT22;8983;53.156;17.960;2023-04-25T05:28:52;11.40;99.90
17726;DHT22;8983;53.156;17.960;2023-04-25T05:31:20;11.40;99.90
17726;DHT22;8983;53.156;17.960;2023-04-25T05:33:48;11.40;99.90
17726;DHT22;8983;53.156;17.960;2023-04-25T05:36:18;11.40;99.90
17726;DHT22;8983;53.156;17.960;2023-04-25T05:38:46;11.40;99.90
17726;DHT22;8983;53.156;17.960;2023-04-25T05:41:16;11.40;99.90
17726;DHT22;8983;53.156;17.960;2023-04-25T05:43:44;11.40;99.90
17726;DHT22;8983;53.156;17.960;2023-04-25T05:46:15;11.40;99.90
17726;DHT22;8983;53.156;17.960;2023-04-25T05:48:44;11.50;99.90
17726;DHT22;8983;53.156;17.960;2023-04-25T05:51:12;11.50;99.90
17726;DHT22;8983;53.156;17.960;2023-04-25T05:53:40;11.50;99.90
17726;DHT22;8983;53.156;17.960;2023-04-25T05:56:08;11.40;99.90
17726;DHT22;8983;53.156;17.960;2023-04-25T05:58:37;11.40;99.90
17726;DHT22;8983;53.156;17.960;2023-04-25T06:01:06;11.30;99.90
17726;DHT22;8983;53.156;17.960;2023-04-25T06:03:34;11.30;99.90
17726;DHT22;8983;53.156;17.960;2023-04-25T06:06:03;11.20;99.90
17726;DHT22;8983;53.156;17.960;2023-04-25T06:08:31;11.20;99.90
17726;DHT22;8983;53.156;17.960;2023-04-25T06:10:59;11.10;99.90
17726;DHT22;8983;53.156;17.960;2023-04-25T06:13:27;11.10;99.90
17726;DHT22;8983;53.156;17.960;2023-04-25T06:15:57;11.10;99.90
17726;DHT22;8983;53.156;17.960;2023-04-25T06:18:25;11.10;99.90
17726;DHT22;8983;53.156;17.960;2023-04-25T06:20:53;11.20;99.90
17726;DHT22;8983;53.156;17.960;2023-04-25T06:23:21;11.20;99.90
17726;DHT22;8983;53.156;17.960;2023-04-25T06:25:49;11.20;99.90
17726;DHT22;8983;53.156;17.960;2023-04-25T06:28:17;11.20;99.90
17726;DHT22;8983;53.156;17.960;2023-04-25T06:30:48;11.20;99.90
17726;DHT22;8983;53.156;17.960;2023-04-25T06:33:18;11.20;99.90
17726;DHT22;8983;53.156;17.960;2023-04-25T06:35:46;11.20;99.90
17726;DHT22;8983;53.156;17.960;2023-04-25T06:38:15;11.20;99.90
17726;DHT22;8983;53.156;17.960;2023-04-25T06:40:43;11.20;99.90
17726;DHT22;8983;53.156;17.960;2023-04-25T06:43:11;11.20;99.90
17726;DHT22;8983;53.156;17.960;2023-04-25T06:45:39;11.20;99.90
17726;DHT22;8983;53.156;17.960;2023-04-25T06:48:10;11.20;99.90
17726;DHT22;8983;53.156;17.960;2023-04-25T06:50:39;11.20;99.90
17726;DHT22;8983;53.156;17.960;2023-04-25T06:53:07;11.30;99.90
17726;DHT22;8983;53.156;17.960;2023-04-25T06:55:35;11.40;99.90
17726;DHT22;8983;53.156;17.960;2023-04-25T06:58:03;11.50;99.90
17726;DHT22;8983;53.156;17.960;2023-04-25T07:00:31;11.50;99.90
17726;DHT22;8983;53.156;17.960;2023-04-25T07:03:00;11.60;99.90
17726;DHT22;8983;53.156;17.960;2023-04-25T07:05:29;11.60;99.90
17726;DHT22;8983;53.156;17.960;2023-04-25T07:07:59;11.70;99.90
17726;DHT22;8983;53.156;17.960;2023-04-25T07:10:27;11.80;99.90
17726;DHT22;8983;53.156;17.960;2023-04-25T07:12:55;11.80;99.90
17726;DHT22;8983;53.156;17.960;2023-04-25T07:15:23;11.80;99.90
17726;DHT22;8983;53.156;17.960;2023-04-25T07:17:51;11.80;99.90
17726;DHT22;8983;53.156;17.960;2023-04-25T07:20:19;11.80;99.90
17726;DHT22;8983;53.156;17.960;2023-04-25T07:22:48;11.90;99.90
17726;DHT22;8983;53.156;17.960;2023-04-25T07:25:18;12.00;99.90
17726;DHT22;8983;53.156;17.960;2023-04-25T07:27:46;12.00;99.90
17726;DHT22;8983;53.156;17.960;2023-04-25T07:30:14;12.00;99.90
17726;DHT22;8983;53.156;17.960;2023-04-25T07:32:42;12.00;99.90
17726;DHT22;8983;53.156;17.960;2023-04-25T07:35:10;12.00;99.90
17726;DHT22;8983;53.156;17.960;2023-04-25T07:37:38;12.10;99.90
17726;DHT22;8983;53.156;17.960;2023-04-25T07:40:08;12.10;99.90
17726;DHT22;8983;53.156;17.960;2023-04-25T07:42:38;12.20;99.90
17726;DHT22;8983;53.156;17.960;2023-04-25T07:45:07;12.20;99.90
17726;DHT22;8983;53.156;17.960;2023-04-25T07:47:36;12.20;99.90
17726;DHT22;8983;53.156;17.960;2023-04-25T07:50:06;12.20;99.90
17726;DHT22;8983;53.156;17.960;2023-04-25T07:52:34;12.20;99.90
17726;DHT22;8983;53.156;17.960;2023-04-25T07:55:03;12.30;99.90
17726;DHT22;8983;53.156;17.960;2023-04-25T07:57:31;12.40;99.90
17726;DHT22;8983;53.156;17.960;2023-04-25T08:00:00;12.40;99.90
17726;DHT22;8983;53.156;17.960;2023-04-25T08:02:28;12.40;99.90
17726;DHT22;8983;53.156;17.960;2023-04-25T08:04:56;12.40;99.90
17726;DHT22;8983;53.156;17.960;2023-04-25T08:07:25;12.40;99.90
17726;DHT22;8983;53.156;17.960;2023-04-25T08:09:54;12.40;99.90
17726;DHT22;8983;53.156;17.960;2023-04-25T08:12:22;12.40;99.90
17726;DHT22;8983;53.156;17.960;2023-04-25T08:14:50;12.40;99.90
17726;DHT22;8983;53.156;17.960;2023-04-25T08:17:19;12.50;99.90
17726;DHT22;8983;53.156;17.960;2023-04-25T08:19:47;12.50;99.90
17726;DHT22;8983;53.156;17.960;2023-04-25T08:22:16;12.50;99.90
17726;DHT22;8983;53.156;17.960;2023-04-25T08:24:44;12.60;99.90
17726;DHT22;8983;53.156;17.960;2023-04-25T08:27:12;12.60;99.90
17726;DHT22;8983;53.156;17.960;2023-04-25T08:29:41;12.70;99.90
17726;DHT22;8983;53.156;17.960;2023-04-25T08:32:09;12.70;99.90
17726;DHT22;8983;53.156;17.960;2023-04-25T08:34:38;12.70;99.90
17726;DHT22;8983;53.156;17.960;2023-04-25T08:37:09;12.80;99.90
17726;DHT22;8983;53.156;17.960;2023-04-25T08:39:37;12.90;99.90
17726;DHT22;8983;53.156;17.960;2023-04-25T08:42:06;12.90;99.90
17726;DHT22;8983;53.156;17.960;2023-04-25T08:44:35;12.90;99.90
17726;DHT22;8983;53.156;17.960;2023-04-25T08:47:04;12.90;99.90
17726;DHT22;8983;53.156;17.960;2023-04-25T08:49:33;12.80;99.90
17726;DHT22;8983;53.156;17.960;2023-04-25T08:52:04;12.70;99.90
17726;DHT22;8983;53.156;17.960;2023-04-25T08:54:33;12.60;99.90
17726;DHT22;8983;53.156;17.960;2023-04-25T08:57:04;12.60;99.90
17726;DHT22;8983;53.156;17.960;2023-04-25T08:59:33;12.50;99.90
17726;DHT22;8983;53.156;17.960;2023-04-25T09:02:04;12.50;99.90
17726;DHT22;8983;53.156;17.960;2023-04-25T09:04:32;12.60;99.90
17726;DHT22;8983;53.156;17.960;2023-04-25T09:07:02;12.60;99.90
17726;DHT22;8983;53.156;17.960;2023-04-25T09:09:30;12.70;99.90
17726;DHT22;8983;53.156;17.960;2023-04-25T09:11:58;12.70;99.90
17726;DHT22;8983;53.156;17.960;2023-04-25T09:14:28;12.80;99.90
17726;DHT22;8983;53.156;17.960;2023-04-25T09:17:00;12.90;99.90
17726;DHT22;8983;53.156;17.960;2023-04-25T09:19:30;12.90;99.90
17726;DHT22;8983;53.156;17.960;2023-04-25T09:22:04;13.00;99.90
17726;DHT22;8983;53.156;17.960;2023-04-25T09:24:37;13.10;99.90
17726;DHT22;8983;53.156;17.960;2023-04-25T09:27:06;13.20;99.90
17726;DHT22;8983;53.156;17.960;2023-04-25T09:29:36;13.20;99.90
17726;DHT22;8983;53.156;17.960;2023-04-25T09:32:17;13.30;99.90
17726;DHT22;8983;53.156;17.960;2023-04-25T09:34:47;13.40;99.90
17726;DHT22;8983;53.156;17.960;2023-04-25T09:37:21;13.50;99.90
17726;DHT22;8983;53.156;17.960;2023-04-25T09:39:53;13.60;99.90
17726;DHT22;8983;53.156;17.960;2023-04-25T09:42:22;13.80;99.90
17726;DHT22;8983;53.156;17.960;2023-04-25T09:44:52;13.80;99.90
17726;DHT22;8983;53.156;17.960;2023-04-25T09:47:22;13.80;99.90
17726;DHT22;8983;53.156;17.960;2023-04-25T09:49:51;13.80;99.90
17726;DHT22;8983;53.156;17.960;2023-04-25T09:52:22;13.80;99.90
17726;DHT22;8983;53.156;17.960;2023-04-25T09:54:52;13.80;99.90
17726;DHT22;8983;53.156;17.960;2023-04-25T09:57:21;13.70;99.90
17726;DHT22;8983;53.156;17.960;2023-04-25T09:59:51;13.60;99.90
17726;DHT22;8983;53.156;17.960;2023-04-25T10:02:20;13.60;99.90
17726;DHT22;8983;53.156;17.960;2023-04-25T10:04:50;13.60;99.90
17726;DHT22;8983;53.156;17.960;2023-04-25T10:07:23;13.50;99.90
17726;DHT22;8983;53.156;17.960;2023-04-25T10:09:59;13.50;99.90
17726;DHT22;8983;53.156;17.960;2023-04-25T10:12:29;13.60;99.90
17726;DHT22;8983;53.156;17.960;2023-04-25T10:14:58;13.50;99.90
17726;DHT22;8983;53.156;17.960;2023-04-25T10:17:27;13.50;99.90
17726;DHT22;8983;53.156;17.960;2023-04-25T10:19:55;13.60;99.90
17726;DHT22;8983;53.156;17.960;2023-04-25T10:22:29;13.70;99.90
17726;DHT22;8983;53.156;17.960;2023-04-25T10:24:59;13.70;99.90
17726;DHT22;8983;53.156;17.960;2023-04-25T10:27:30;13.70;99.90
17726;DHT22;8983;53.156;17.960;2023-04-25T10:30:02;13.80;99.90
17726;DHT22;8983;53.156;17.960;2023-04-25T10:32:32;13.90;99.90
17726;DHT22;8983;53.156;17.960;2023-04-25T10:35:10;13.80;99.90
17726;DHT22;8983;53.156;17.960;2023-04-25T10:37:56;13.80;99.90
17726;DHT22;8983;53.156;17.960;2023-04-25T10:40:25;13.70;99.90
17726;DHT22;8983;53.156;17.960;2023-04-25T10:42:53;13.80;99.90
17726;DHT22;8983;53.156;17.960;2023-04-25T10:45:22;13.90;99.90
17726;DHT22;8983;53.156;17.960;2023-04-25T10:47:50;13.80;99.90
17726;DHT22;8983;53.156;17.960;2023-04-25T10:50:19;13.80;99.90
17726;DHT22;8983;53.156;17.960;2023-04-25T10:52:48;13.70;99.90
17726;DHT22;8983;53.156;17.960;2023-04-25T10:55:16;13.70;99.90
17726;DHT22;8983;53.156;17.960;2023-04-25T10:57:45;13.70;99.90
17726;DHT22;8983;53.156;17.960;2023-04-25T11:00:16;13.70;99.90
17726;DHT22;8983;53.156;17.960;2023-04-25T11:02:46;13.70;99.90
17726;DHT22;8983;53.156;17.960;2023-04-25T11:05:22;13.70;99.90
17726;DHT22;8983;53.156;17.960;2023-04-25T11:07:54;13.60;99.90
17726;DHT22;8983;53.156;17.960;2023-04-25T11:10:33;13.60;99.90
17726;DHT22;8983;53.156;17.960;2023-04-25T11:13:03;13.60;99.90
17726;DHT22;8983;53.156;17.960;2023-04-25T11:15:31;13.80;99.90
17726;DHT22;8983;53.156;17.960;2023-04-25T11:17:59;14.00;99.90
17726;DHT22;8983;53.156;17.960;2023-04-25T11:20:29;14.00;99.90
17726;DHT22;8983;53.156;17.960;2023-04-25T11:22:59;14.00;99.90
17726;DHT22;8983;53.156;17.960;2023-04-25T11:25:32;13.90;99.90
17726;DHT22;8983;53.156;17.960;2023-04-25T11:28:04;13.80;99.90
17726;DHT22;8983;53.156;17.960;2023-04-25T11:30:32;13.70;99.90
17726;DHT22;8983;53.156;17.960;2023-04-25T11:33:00;13.50;99.90
17726;DHT22;8983;53.156;17.960;2023-04-25T11:35:30;13.50;99.90
17726;DHT22;8983;53.156;17.960;2023-04-25T11:38:01;13.50;99.90
17726;DHT22;8983;53.156;17.960;2023-04-25T11:40:30;13.60;99.90
17726;DHT22;8983;53.156;17.960;2023-04-25T11:43:00;13.60;99.90
17726;DHT22;8983;53.156;17.960;2023-04-25T11:45:28;13.60;99.90
17726;DHT22;8983;53.156;17.960;2023-04-25T11:47:57;13.70;99.90
17726;DHT22;8983;53.156;17.960;2023-04-25T11:50:28;13.70;99.90
17726;DHT22;8983;53.156;17.960;2023-04-25T11:52:56;13.70;99.90
17726;DHT22;8983;53.156;17.960;2023-04-25T11:55:26;13.80;99.90
17726;DHT22;8983;53.156;17.960;2023-04-25T11:57:59;13.80;99.90
17726;DHT22;8983;53.156;17.960;2023-04-25T12:00:28;13.80;99.90
17726;DHT22;8983;53.156;17.960;2023-04-25T12:02:57;13.80;99.90
17726;DHT22;8983;53.156;17.960;2023-04-25T12:05:27;13.80;99.90
17726;DHT22;8983;53.156;17.960;2023-04-25T12:08:12;13.80;99.90
17726;DHT22;8983;53.156;17.960;2023-04-25T12:10:44;14.00;99.90
17726;DHT22;8983;53.156;17.960;2023-04-25T12:13:23;14.10;99.90
17726;DHT22;8983;53.156;17.960;2023-04-25T12:15:53;14.40;99.90
17726;DHT22;8983;53.156;17.960;2023-04-25T12:18:23;14.50;99.90
17726;DHT22;8983;53.156;17.960;2023-04-25T12:20:52;14.60;99.90
17726;DHT22;8983;53.156;17.960;2023-04-25T12:23:25;14.80;99.90
17726;DHT22;8983;53.156;17.960;2023-04-25T12:25:56;15.00;99.90
17726;DHT22;8983;53.156;17.960;2023-04-25T12:28:25;15.10;99.90
17726;DHT22;8983;53.156;17.960;2023-04-25T12:30:55;15.20;99.90
17726;DHT22;8983;53.156;17.960;2023-04-25T12:33:25;15.20;99.90
17726;DHT22;8983;53.156;17.960;2023-04-25T12:35:54;15.30;99.90
17726;DHT22;8983;53.156;17.960;2023-04-25T12:38:26;15.20;99.90
17726;DHT22;8983;53.156;17.960;2023-04-25T12:40:58;15.20;99.90
17726;DHT22;8983;53.156;17.960;2023-04-25T12:43:26;15.10;99.90
17726;DHT22;8983;53.156;17.960;2023-04-25T12:45:55;15.00;99.90
17726;DHT22;8983;53.156;17.960;2023-04-25T12:48:23;15.20;99.90
17726;DHT22;8983;53.156;17.960;2023-04-25T12:50:51;15.40;99.90
17726;DHT22;8983;53.156;17.960;2023-04-25T12:53:21;15.60;99.90
17726;DHT22;8983;53.156;17.960;2023-04-25T12:55:49;15.70;99.90
17726;DHT22;8983;53.156;17.960;2023-04-25T12:58:19;15.70;99.90
17726;DHT22;8983;53.156;17.960;2023-04-25T13:00:47;15.70;99.90
17726;DHT22;8983;53.156;17.960;2023-04-25T13:03:15;15.60;99.90
17726;DHT22;8983;53.156;17.960;2023-04-25T13:05:44;15.40;99.90
17726;DHT22;8983;53.156;17.960;2023-04-25T13:08:13;15.20;99.90
17726;DHT22;8983;53.156;17.960;2023-04-25T13:10:41;15.10;99.90
17726;DHT22;8983;53.156;17.960;2023-04-25T13:13:09;14.90;99.90
17726;DHT22;8983;53.156;17.960;2023-04-25T13:15:38;14.80;99.90
17726;DHT22;8983;53.156;17.960;2023-04-25T13:18:07;14.60;99.90
17726;DHT22;8983;53.156;17.960;2023-04-25T13:20:35;14.50;99.90
17726;DHT22;8983;53.156;17.960;2023-04-25T13:23:03;14.50;99.90
17726;DHT22;8983;53.156;17.960;2023-04-25T13:25:31;14.50;99.90
17726;DHT22;8983;53.156;17.960;2023-04-25T13:27:59;14.40;99.90
17726;DHT22;8983;53.156;17.960;2023-04-25T13:30:27;14.30;99.90
17726;DHT22;8983;53.156;17.960;2023-04-25T13:32:57;14.20;99.90
17726;DHT22;8983;53.156;17.960;2023-04-25T13:35:30;14.20;99.90
17726;DHT22;8983;53.156;17.960;2023-04-25T13:37:59;14.10;99.90
17726;DHT22;8983;53.156;17.960;2023-04-25T13:40:29;14.00;99.90
17726;DHT22;8983;53.156;17.960;2023-04-25T13:42:58;14.10;99.90
17726;DHT22;8983;53.156;17.960;2023-04-25T13:45:27;14.20;99.90
17726;DHT22;8983;53.156;17.960;2023-04-25T13:47:59;14.50;99.90
17726;DHT22;8983;53.156;17.960;2023-04-25T13:50:28;14.80;99.90
17726;DHT22;8983;53.156;17.960;2023-04-25T13:52:56;15.10;99.90
17726;DHT22;8983;53.156;17.960;2023-04-25T13:55:25;15.30;99.90
17726;DHT22;8983;53.156;17.960;2023-04-25T13:57:53;15.50;99.90
17726;DHT22;8983;53.156;17.960;2023-04-25T14:00:22;15.60;99.90
17726;DHT22;8983;53.156;17.960;2023-04-25T14:02:50;15.60;99.90
17726;DHT22;8983;53.156;17.960;2023-04-25T14:05:19;15.50;99.90
17726;DHT22;8983;53.156;17.960;2023-04-25T14:07:47;15.40;99.90
17726;DHT22;8983;53.156;17.960;2023-04-25T14:10:15;15.30;99.90
17726;DHT22;8983;53.156;17.960;2023-04-25T14:12:43;15.20;99.90
17726;DHT22;8983;53.156;17.960;2023-04-25T14:15:11;14.90;99.90
17726;DHT22;8983;53.156;17.960;2023-04-25T14:17:39;14.80;99.90
17726;DHT22;8983;53.156;17.960;2023-04-25T14:20:08;14.50;99.90
17726;DHT22;8983;53.156;17.960;2023-04-25T14:22:39;14.20;99.90
17726;DHT22;8983;53.156;17.960;2023-04-25T14:25:10;13.80;99.90
17726;DHT22;8983;53.156;17.960;2023-04-25T14:27:38;13.50;99.90
17726;DHT22;8983;53.156;17.960;2023-04-25T14:30:07;13.10;99.90
17726;DHT22;8983;53.156;17.960;2023-04-25T14:32:36;12.80;99.90
17726;DHT22;8983;53.156;17.960;2023-04-25T14:35:05;12.50;99.90
17726;DHT22;8983;53.156;17.960;2023-04-25T14:37:33;12.40;99.90
17726;DHT22;8983;53.156;17.960;2023-04-25T14:40:03;12.20;99.90
17726;DHT22;8983;53.156;17.960;2023-04-25T14:42:33;12.20;99.90
17726;DHT22;8983;53.156;17.960;2023-04-25T14:45:02;12.10;99.90
17726;DHT22;8983;53.156;17.960;2023-04-25T14:47:30;12.10;99.90
17726;DHT22;8983;53.156;17.960;2023-04-25T14:49:58;12.10;99.90
17726;DHT22;8983;53.156;17.960;2023-04-25T14:52:26;12.20;99.90
17726;DHT22;8983;53.156;17.960;2023-04-25T14:54:55;12.40;99.90
17726;DHT22;8983;53.156;17.960;2023-04-25T14:57:24;12.50;99.90
17726;DHT22;8983;53.156;17.960;2023-04-25T14:59:52;12.60;99.90
17726;DHT22;8983;53.156;17.960;2023-04-25T15:02:21;12.60;99.90
17726;DHT22;8983;53.156;17.960;2023-04-25T15:04:49;12.70;99.90
17726;DHT22;8983;53.156;17.960;2023-04-25T15:07:17;12.70;99.90
17726;DHT22;8983;53.156;17.960;2023-04-25T15:09:45;12.90;99.90
17726;DHT22;8983;53.156;17.960;2023-04-25T15:12:13;12.80;99.90
17726;DHT22;8983;53.156;17.960;2023-04-25T15:14:42;12.90;99.90
17726;DHT22;8983;53.156;17.960;2023-04-25T15:17:10;12.90;99.90
17726;DHT22;8983;53.156;17.960;2023-04-25T15:19:40;13.00;99.90
17726;DHT22;8983;53.156;17.960;2023-04-25T15:22:09;13.00;99.90
17726;DHT22;8983;53.156;17.960;2023-04-25T15:24:37;13.00;99.90
17726;DHT22;8983;53.156;17.960;2023-04-25T15:27:05;12.90;99.90
17726;DHT22;8983;53.156;17.960;2023-04-25T15:29:34;12.90;99.90
17726;DHT22;8983;53.156;17.960;2023-04-25T15:32:03;12.80;99.90
17726;DHT22;8983;53.156;17.960;2023-04-25T15:34:32;12.80;99.90
17726;DHT22;8983;53.156;17.960;2023-04-25T15:37:01;12.80;99.90
17726;DHT22;8983;53.156;17.960;2023-04-25T15:39:31;12.70;99.90
17726;DHT22;8983;53.156;17.960;2023-04-25T15:41:59;12.80;99.90